sensor_id;sensor_type;location;lat;lon;timestamp;P1;durP1;ratioP1;P2;durP2;ratioP2
57832;SDS011;43667;53.036;6.740;2023-02-27T00:00:36;5.47;;;1.90;;
57832;SDS011;43667;53.036;6.740;2023-02-27T00:03:01;9.57;;;2.20;;
57832;SDS011;43667;53.036;6.740;2023-02-27T00:05:27;6.00;;;2.70;;
57832;SDS011;43667;53.036;6.740;2023-02-27T00:07:52;7.18;;;2.28;;
57832;SDS011;43667;53.036;6.740;2023-02-27T00:10:18;7.47;;;2.45;;
57832;SDS011;43667;53.036;6.740;2023-02-27T00:12:44;6.95;;;2.35;;
57832;SDS011;43667;53.036;6.740;2023-02-27T00:15:11;6.68;;;1.83;;
57832;SDS011;43667;53.036;6.740;2023-02-27T00:17:39;6.68;;;1.80;;
57832;SDS011;43667;53.036;6.740;2023-02-27T00:20:05;8.10;;;2.58;;
57832;SDS011;43667;53.036;6.740;2023-02-27T00:22:35;9.00;;;2.00;;
57832;SDS011;43667;53.036;6.740;2023-02-27T00:25:00;7.25;;;2.50;;
57832;SDS011;43667;53.036;6.740;2023-02-27T00:27:26;7.47;;;2.33;;
57832;SDS011;43667;53.036;6.740;2023-02-27T00:29:52;5.63;;;1.85;;
57832;SDS011;43667;53.036;6.740;2023-02-27T00:32:17;5.00;;;1.65;;
57832;SDS011;43667;53.036;6.740;2023-02-27T00:34:43;8.07;;;2.05;;
57832;SDS011;43667;53.036;6.740;2023-02-27T00:37:08;5.85;;;1.80;;
57832;SDS011;43667;53.036;6.740;2023-02-27T00:39:34;11.02;;;1.90;;
57832;SDS011;43667;53.036;6.740;2023-02-27T00:41:59;6.30;;;1.70;;
57832;SDS011;43667;53.036;6.740;2023-02-27T00:44:25;9.57;;;2.17;;
57832;SDS011;43667;53.036;6.740;2023-02-27T00:46:51;8.07;;;1.70;;
57832;SDS011;43667;53.036;6.740;2023-02-27T00:49:16;4.90;;;2.30;;
57832;SDS011;43667;53.036;6.740;2023-02-27T00:51:43;5.07;;;1.40;;
57832;SDS011;43667;53.036;6.740;2023-02-27T00:54:09;7.72;;;2.10;;
57832;SDS011;43667;53.036;6.740;2023-02-27T00:56:35;6.15;;;1.80;;
57832;SDS011;43667;53.036;6.740;2023-02-27T00:59:01;7.45;;;1.75;;
57832;SDS011;43667;53.036;6.740;2023-02-27T01:01:26;5.40;;;1.88;;
57832;SDS011;43667;53.036;6.740;2023-02-27T01:03:52;5.35;;;1.63;;
57832;SDS011;43667;53.036;6.740;2023-02-27T01:06:18;6.88;;;1.98;;
57832;SDS011;43667;53.036;6.740;2023-02-27T01:08:43;7.25;;;2.10;;
57832;SDS011;43667;53.036;6.740;2023-02-27T01:11:09;7.88;;;2.55;;
57832;SDS011;43667;53.036;6.740;2023-02-27T01:13:34;5.28;;;1.70;;
57832;SDS011;43667;53.036;6.740;2023-02-27T01:16:00;8.98;;;1.70;;
57832;SDS011;43667;53.036;6.740;2023-02-27T01:18:25;6.15;;;1.77;;
57832;SDS011;43667;53.036;6.740;2023-02-27T01:20:52;7.70;;;2.38;;
57832;SDS011;43667;53.036;6.740;2023-02-27T01:23:18;8.07;;;1.60;;
57832;SDS011;43667;53.036;6.740;2023-02-27T01:25:45;5.35;;;1.63;;
57832;SDS011;43667;53.036;6.740;2023-02-27T01:28:11;6.05;;;1.75;;
57832;SDS011;43667;53.036;6.740;2023-02-27T01:30:36;5.18;;;1.58;;
57832;SDS011;43667;53.036;6.740;2023-02-27T01:33:02;5.10;;;1.67;;
57832;SDS011;43667;53.036;6.740;2023-02-27T01:35:28;11.32;;;2.13;;
57832;SDS011;43667;53.036;6.740;2023-02-27T01:37:53;6.45;;;1.58;;
57832;SDS011;43667;53.036;6.740;2023-02-27T01:40:19;5.30;;;1.70;;
57832;SDS011;43667;53.036;6.740;2023-02-27T01:42:45;9.07;;;2.08;;
57832;SDS011;43667;53.036;6.740;2023-02-27T01:47:47;6.55;;;1.58;;
57832;SDS011;43667;53.036;6.740;2023-02-27T01:50:15;5.45;;;1.33;;
57832;SDS011;43667;53.036;6.740;2023-02-27T01:52:43;5.10;;;1.55;;
57832;SDS011;43667;53.036;6.740;2023-02-27T01:55:13;4.65;;;1.83;;
57832;SDS011;43667;53.036;6.740;2023-02-27T01:57:39;4.78;;;1.65;;
57832;SDS011;43667;53.036;6.740;2023-02-27T02:00:07;6.10;;;1.60;;
57832;SDS011;43667;53.036;6.740;2023-02-27T02:02:35;6.90;;;1.95;;
57832;SDS011;43667;53.036;6.740;2023-02-27T02:05:03;5.78;;;1.58;;
57832;SDS011;43667;53.036;6.740;2023-02-27T02:07:31;7.20;;;1.92;;
57832;SDS011;43667;53.036;6.740;2023-02-27T02:09:58;7.43;;;1.58;;
57832;SDS011;43667;53.036;6.740;2023-02-27T02:12:28;5.30;;;1.95;;
57832;SDS011;43667;53.036;6.740;2023-02-27T02:14:57;4.28;;;1.50;;
57832;SDS011;43667;53.036;6.740;2023-02-27T02:34:18;7.50;;;1.95;;
57832;SDS011;43667;53.036;6.740;2023-02-27T02:39:54;5.80;;;1.80;;
57832;SDS011;43667;53.036;6.740;2023-02-27T02:48:36;5.15;;;1.45;;
57832;SDS011;43667;53.036;6.740;2023-02-27T02:53:57;7.35;;;1.50;;
57832;SDS011;43667;53.036;6.740;2023-02-27T02:56:47;6.65;;;1.55;;
57832;SDS011;43667;53.036;6.740;2023-02-27T03:01:51;3.08;;;1.30;;
57832;SDS011;43667;53.036;6.740;2023-02-27T03:07:34;9.88;;;2.03;;
57832;SDS011;43667;53.036;6.740;2023-02-27T03:12:30;11.88;;;2.20;;
57832;SDS011;43667;53.036;6.740;2023-02-27T03:15:05;9.52;;;2.00;;
57832;SDS011;43667;53.036;6.740;2023-02-27T03:18:00;4.32;;;1.60;;
57832;SDS011;43667;53.036;6.740;2023-02-27T03:20:33;5.30;;;2.00;;
57832;SDS011;43667;53.036;6.740;2023-02-27T03:23:04;14.32;;;2.42;;
57832;SDS011;43667;53.036;6.740;2023-02-27T03:25:35;11.50;;;1.90;;
57832;SDS011;43667;53.036;6.740;2023-02-27T03:28:03;6.47;;;1.88;;
57832;SDS011;43667;53.036;6.740;2023-02-27T03:30:38;5.82;;;1.85;;
57832;SDS011;43667;53.036;6.740;2023-02-27T03:33:11;5.05;;;1.55;;
57832;SDS011;43667;53.036;6.740;2023-02-27T03:35:43;5.72;;;1.90;;
57832;SDS011;43667;53.036;6.740;2023-02-27T03:41:13;6.57;;;1.98;;
57832;SDS011;43667;53.036;6.740;2023-02-27T03:44:06;7.47;;;1.88;;
57832;SDS011;43667;53.036;6.740;2023-02-27T03:46:45;12.55;;;2.03;;
57832;SDS011;43667;53.036;6.740;2023-02-27T03:49:10;7.60;;;1.67;;
57832;SDS011;43667;53.036;6.740;2023-02-27T03:51:36;6.35;;;1.70;;
57832;SDS011;43667;53.036;6.740;2023-02-27T03:56:38;8.05;;;1.90;;
57832;SDS011;43667;53.036;6.740;2023-02-27T03:59:25;6.68;;;1.70;;
57832;SDS011;43667;53.036;6.740;2023-02-27T04:01:51;5.28;;;1.65;;
57832;SDS011;43667;53.036;6.740;2023-02-27T04:04:18;5.88;;;1.85;;
57832;SDS011;43667;53.036;6.740;2023-02-27T04:06:45;5.57;;;1.88;;
57832;SDS011;43667;53.036;6.740;2023-02-27T04:09:46;11.32;;;2.00;;
57832;SDS011;43667;53.036;6.740;2023-02-27T04:15:18;4.45;;;1.83;;
57832;SDS011;43667;53.036;6.740;2023-02-27T04:21:09;8.13;;;2.55;;
57832;SDS011;43667;53.036;6.740;2023-02-27T04:26:19;9.35;;;2.15;;
57832;SDS011;43667;53.036;6.740;2023-02-27T04:29:07;6.05;;;2.15;;
57832;SDS011;43667;53.036;6.740;2023-02-27T04:34:28;11.38;;;2.60;;
57832;SDS011;43667;53.036;6.740;2023-02-27T04:37:01;6.18;;;2.13;;
57832;SDS011;43667;53.036;6.740;2023-02-27T04:39:42;6.28;;;2.05;;
57832;SDS011;43667;53.036;6.740;2023-02-27T04:42:13;8.82;;;2.42;;
57832;SDS011;43667;53.036;6.740;2023-02-27T04:44:40;8.65;;;3.13;;
57832;SDS011;43667;53.036;6.740;2023-02-27T04:47:08;10.55;;;2.72;;
57832;SDS011;43667;53.036;6.740;2023-02-27T04:49:39;9.75;;;2.50;;
57832;SDS011;43667;53.036;6.740;2023-02-27T04:52:14;10.25;;;2.97;;
57832;SDS011;43667;53.036;6.740;2023-02-27T04:55:02;12.07;;;2.95;;
57832;SDS011;43667;53.036;6.740;2023-02-27T04:57:31;7.38;;;2.65;;
57832;SDS011;43667;53.036;6.740;2023-02-27T05:00:00;8.57;;;3.47;;
57832;SDS011;43667;53.036;6.740;2023-02-27T05:02:43;4.88;;;2.70;;
57832;SDS011;43667;53.036;6.740;2023-02-27T05:05:15;6.90;;;3.22;;
57832;SDS011;43667;53.036;6.740;2023-02-27T05:07:51;5.93;;;3.22;;
57832;SDS011;43667;53.036;6.740;2023-02-27T05:10:27;10.02;;;3.00;;
57832;SDS011;43667;53.036;6.740;2023-02-27T05:13:17;9.32;;;3.53;;
57832;SDS011;43667;53.036;6.740;2023-02-27T05:16:06;13.20;;;4.15;;
57832;SDS011;43667;53.036;6.740;2023-02-27T05:18:57;13.30;;;3.72;;
57832;SDS011;43667;53.036;6.740;2023-02-27T05:21:25;12.45;;;3.60;;
57832;SDS011;43667;53.036;6.740;2023-02-27T05:24:09;9.32;;;2.97;;
57832;SDS011;43667;53.036;6.740;2023-02-27T05:32:21;8.30;;;3.55;;
57832;SDS011;43667;53.036;6.740;2023-02-27T05:37:31;11.20;;;4.03;;
57832;SDS011;43667;53.036;6.740;2023-02-27T05:40:03;15.75;;;3.88;;
57832;SDS011;43667;53.036;6.740;2023-02-27T05:42:34;9.43;;;3.67;;
57832;SDS011;43667;53.036;6.740;2023-02-27T05:45:05;12.25;;;3.97;;
57832;SDS011;43667;53.036;6.740;2023-02-27T05:47:36;10.68;;;3.80;;
57832;SDS011;43667;53.036;6.740;2023-02-27T05:50:12;12.93;;;4.28;;
57832;SDS011;43667;53.036;6.740;2023-02-27T05:52:45;12.07;;;4.43;;
57832;SDS011;43667;53.036;6.740;2023-02-27T05:57:46;11.38;;;3.95;;
57832;SDS011;43667;53.036;6.740;2023-02-27T06:00:21;9.98;;;3.95;;
57832;SDS011;43667;53.036;6.740;2023-02-27T06:02:49;10.50;;;3.95;;
57832;SDS011;43667;53.036;6.740;2023-02-27T06:05:15;12.85;;;4.45;;
57832;SDS011;43667;53.036;6.740;2023-02-27T06:07:42;11.93;;;4.45;;
57832;SDS011;43667;53.036;6.740;2023-02-27T06:10:13;14.20;;;4.50;;
57832;SDS011;43667;53.036;6.740;2023-02-27T06:12:40;11.30;;;4.10;;
57832;SDS011;43667;53.036;6.740;2023-02-27T06:15:06;12.13;;;4.40;;
57832;SDS011;43667;53.036;6.740;2023-02-27T06:17:32;12.35;;;4.22;;
57832;SDS011;43667;53.036;6.740;2023-02-27T06:19:58;13.30;;;4.45;;
57832;SDS011;43667;53.036;6.740;2023-02-27T06:22:24;10.73;;;4.28;;
57832;SDS011;43667;53.036;6.740;2023-02-27T06:24:49;13.77;;;4.45;;
57832;SDS011;43667;53.036;6.740;2023-02-27T06:27:15;12.48;;;4.13;;
57832;SDS011;43667;53.036;6.740;2023-02-27T06:29:41;8.50;;;3.83;;
57832;SDS011;43667;53.036;6.740;2023-02-27T06:32:06;10.00;;;4.38;;
57832;SDS011;43667;53.036;6.740;2023-02-27T06:34:32;9.95;;;4.32;;
57832;SDS011;43667;53.036;6.740;2023-02-27T06:36:57;8.85;;;3.90;;
57832;SDS011;43667;53.036;6.740;2023-02-27T06:39:23;9.75;;;4.13;;
57832;SDS011;43667;53.036;6.740;2023-02-27T06:41:48;15.18;;;4.68;;
57832;SDS011;43667;53.036;6.740;2023-02-27T06:44:14;10.02;;;4.20;;
57832;SDS011;43667;53.036;6.740;2023-02-27T06:46:39;12.13;;;4.40;;
57832;SDS011;43667;53.036;6.740;2023-02-27T06:49:05;14.30;;;4.72;;
57832;SDS011;43667;53.036;6.740;2023-02-27T06:51:31;10.23;;;4.75;;
57832;SDS011;43667;53.036;6.740;2023-02-27T06:53:56;9.73;;;4.75;;
57832;SDS011;43667;53.036;6.740;2023-02-27T06:56:22;10.90;;;4.57;;
57832;SDS011;43667;53.036;6.740;2023-02-27T06:58:48;13.75;;;4.32;;
57832;SDS011;43667;53.036;6.740;2023-02-27T07:01:13;9.23;;;4.40;;
57832;SDS011;43667;53.036;6.740;2023-02-27T07:03:39;8.93;;;4.15;;
57832;SDS011;43667;53.036;6.740;2023-02-27T07:06:05;12.43;;;4.57;;
57832;SDS011;43667;53.036;6.740;2023-02-27T07:08:30;11.13;;;4.30;;
57832;SDS011;43667;53.036;6.740;2023-02-27T07:10:56;13.18;;;4.47;;
57832;SDS011;43667;53.036;6.740;2023-02-27T07:13:21;8.05;;;4.28;;
57832;SDS011;43667;53.036;6.740;2023-02-27T07:15:47;10.00;;;4.57;;
57832;SDS011;43667;53.036;6.740;2023-02-27T07:18:14;14.63;;;5.55;;
57832;SDS011;43667;53.036;6.740;2023-02-27T07:20:40;12.30;;;5.05;;
57832;SDS011;43667;53.036;6.740;2023-02-27T07:23:06;11.18;;;5.15;;
57832;SDS011;43667;53.036;6.740;2023-02-27T07:25:31;11.00;;;5.10;;
57832;SDS011;43667;53.036;6.740;2023-02-27T07:27:57;12.85;;;5.93;;
57832;SDS011;43667;53.036;6.740;2023-02-27T07:30:22;13.15;;;5.15;;
57832;SDS011;43667;53.036;6.740;2023-02-27T07:32:48;10.73;;;5.32;;
57832;SDS011;43667;53.036;6.740;2023-02-27T07:35:14;9.80;;;5.40;;
57832;SDS011;43667;53.036;6.740;2023-02-27T07:37:40;13.23;;;5.43;;
57832;SDS011;43667;53.036;6.740;2023-02-27T07:40:06;12.95;;;5.80;;
57832;SDS011;43667;53.036;6.740;2023-02-27T07:42:33;15.32;;;5.68;;
57832;SDS011;43667;53.036;6.740;2023-02-27T07:44:58;12.70;;;5.68;;
57832;SDS011;43667;53.036;6.740;2023-02-27T07:47:24;15.38;;;6.10;;
57832;SDS011;43667;53.036;6.740;2023-02-27T07:49:50;13.65;;;6.28;;
57832;SDS011;43667;53.036;6.740;2023-02-27T07:52:15;15.48;;;6.82;;
57832;SDS011;43667;53.036;6.740;2023-02-27T07:54:41;20.83;;;8.38;;
57832;SDS011;43667;53.036;6.740;2023-02-27T07:57:07;16.60;;;6.75;;
57832;SDS011;43667;53.036;6.740;2023-02-27T07:59:32;17.05;;;7.72;;
57832;SDS011;43667;53.036;6.740;2023-02-27T08:01:58;14.77;;;7.20;;
57832;SDS011;43667;53.036;6.740;2023-02-27T08:04:24;17.10;;;6.20;;
57832;SDS011;43667;53.036;6.740;2023-02-27T08:06:49;13.13;;;6.07;;
57832;SDS011;43667;53.036;6.740;2023-02-27T08:09:15;11.63;;;6.30;;
57832;SDS011;43667;53.036;6.740;2023-02-27T08:11:40;15.00;;;5.43;;
57832;SDS011;43667;53.036;6.740;2023-02-27T08:14:06;14.52;;;6.57;;
57832;SDS011;43667;53.036;6.740;2023-02-27T08:16:31;15.20;;;5.28;;
57832;SDS011;43667;53.036;6.740;2023-02-27T08:18:57;15.35;;;5.35;;
57832;SDS011;43667;53.036;6.740;2023-02-27T08:21:23;12.85;;;5.13;;
57832;SDS011;43667;53.036;6.740;2023-02-27T08:23:49;11.18;;;4.85;;
57832;SDS011;43667;53.036;6.740;2023-02-27T08:26:16;16.27;;;5.07;;
57832;SDS011;43667;53.036;6.740;2023-02-27T08:28:41;14.13;;;4.80;;
57832;SDS011;43667;53.036;6.740;2023-02-27T08:31:07;12.25;;;4.85;;
57832;SDS011;43667;53.036;6.740;2023-02-27T08:33:33;14.52;;;4.78;;
57832;SDS011;43667;53.036;6.740;2023-02-27T08:35:58;15.20;;;5.60;;
57832;SDS011;43667;53.036;6.740;2023-02-27T08:38:24;14.23;;;4.70;;
57832;SDS011;43667;53.036;6.740;2023-02-27T08:40:50;12.30;;;4.55;;
57832;SDS011;43667;53.036;6.740;2023-02-27T08:43:19;11.57;;;3.72;;
57832;SDS011;43667;53.036;6.740;2023-02-27T08:45:46;12.35;;;3.60;;
57832;SDS011;43667;53.036;6.740;2023-02-27T08:48:12;10.73;;;3.00;;
57832;SDS011;43667;53.036;6.740;2023-02-27T08:50:40;14.93;;;3.83;;
57832;SDS011;43667;53.036;6.740;2023-02-27T08:53:06;9.00;;;2.72;;
57832;SDS011;43667;53.036;6.740;2023-02-27T08:55:31;10.38;;;3.60;;
57832;SDS011;43667;53.036;6.740;2023-02-27T08:57:57;8.90;;;3.63;;
57832;SDS011;43667;53.036;6.740;2023-02-27T09:00:23;14.32;;;3.78;;
57832;SDS011;43667;53.036;6.740;2023-02-27T09:02:49;10.88;;;4.00;;
57832;SDS011;43667;53.036;6.740;2023-02-27T09:05:14;15.27;;;3.80;;
57832;SDS011;43667;53.036;6.740;2023-02-27T09:07:40;9.35;;;3.30;;
57832;SDS011;43667;53.036;6.740;2023-02-27T09:10:06;7.75;;;2.70;;
57832;SDS011;43667;53.036;6.740;2023-02-27T09:12:32;10.93;;;2.42;;
57832;SDS011;43667;53.036;6.740;2023-02-27T09:14:58;7.40;;;2.67;;
57832;SDS011;43667;53.036;6.740;2023-02-27T09:17:23;8.73;;;2.28;;
57832;SDS011;43667;53.036;6.740;2023-02-27T09:19:49;7.60;;;2.63;;
57832;SDS011;43667;53.036;6.740;2023-02-27T09:22:16;9.50;;;2.00;;
57832;SDS011;43667;53.036;6.740;2023-02-27T09:24:42;8.38;;;2.30;;
57832;SDS011;43667;53.036;6.740;2023-02-27T09:27:08;8.23;;;2.67;;
57832;SDS011;43667;53.036;6.740;2023-02-27T09:29:33;8.57;;;3.10;;
57832;SDS011;43667;53.036;6.740;2023-02-27T09:31:59;12.88;;;3.03;;
57832;SDS011;43667;53.036;6.740;2023-02-27T09:34:25;7.07;;;2.38;;
57832;SDS011;43667;53.036;6.740;2023-02-27T09:36:50;8.65;;;2.45;;
57832;SDS011;43667;53.036;6.740;2023-02-27T09:39:16;9.55;;;2.80;;
57832;SDS011;43667;53.036;6.740;2023-02-27T09:46:46;8.85;;;2.45;;
57832;SDS011;43667;53.036;6.740;2023-02-27T09:49:13;10.18;;;2.00;;
57832;SDS011;43667;53.036;6.740;2023-02-27T09:51:42;9.77;;;2.47;;
57832;SDS011;43667;53.036;6.740;2023-02-27T09:54:08;11.95;;;3.15;;
57832;SDS011;43667;53.036;6.740;2023-02-27T09:56:41;9.02;;;1.98;;
57832;SDS011;43667;53.036;6.740;2023-02-27T09:59:36;6.25;;;1.63;;
57832;SDS011;43667;53.036;6.740;2023-02-27T10:05:16;9.48;;;1.98;;
57832;SDS011;43667;53.036;6.740;2023-02-27T10:13:08;9.05;;;2.08;;
57832;SDS011;43667;53.036;6.740;2023-02-27T10:15:50;7.93;;;1.45;;
57832;SDS011;43667;53.036;6.740;2023-02-27T10:18:21;6.95;;;1.45;;
57832;SDS011;43667;53.036;6.740;2023-02-27T10:20:54;9.00;;;1.63;;
57832;SDS011;43667;53.036;6.740;2023-02-27T10:23:42;5.28;;;1.05;;
57832;SDS011;43667;53.036;6.740;2023-02-27T10:26:20;7.28;;;1.25;;
57832;SDS011;43667;53.036;6.740;2023-02-27T10:28:48;5.07;;;1.05;;
57832;SDS011;43667;53.036;6.740;2023-02-27T10:31:17;7.07;;;1.42;;
57832;SDS011;43667;53.036;6.740;2023-02-27T10:33:53;9.50;;;2.20;;
57832;SDS011;43667;53.036;6.740;2023-02-27T10:36:20;8.43;;;1.30;;
57832;SDS011;43667;53.036;6.740;2023-02-27T10:38:54;6.07;;;1.00;;
57832;SDS011;43667;53.036;6.740;2023-02-27T10:41:22;5.85;;;1.13;;
57832;SDS011;43667;53.036;6.740;2023-02-27T10:43:49;7.10;;;1.35;;
57832;SDS011;43667;53.036;6.740;2023-02-27T10:49:00;5.10;;;1.23;;
57832;SDS011;43667;53.036;6.740;2023-02-27T10:51:30;6.13;;;1.20;;
57832;SDS011;43667;53.036;6.740;2023-02-27T10:54:13;5.60;;;1.25;;
57832;SDS011;43667;53.036;6.740;2023-02-27T10:56:54;6.07;;;2.13;;
57832;SDS011;43667;53.036;6.740;2023-02-27T11:01:57;4.38;;;0.50;;
57832;SDS011;43667;53.036;6.740;2023-02-27T11:06:52;1.23;;;0.35;;
57832;SDS011;43667;53.036;6.740;2023-02-27T11:09:20;1.63;;;0.38;;
57832;SDS011;43667;53.036;6.740;2023-02-27T11:11:49;2.40;;;0.47;;
57832;SDS011;43667;53.036;6.740;2023-02-27T11:14:22;1.63;;;0.47;;
57832;SDS011;43667;53.036;6.740;2023-02-27T11:16:53;1.35;;;0.50;;
57832;SDS011;43667;53.036;6.740;2023-02-27T11:24:27;2.55;;;0.47;;
57832;SDS011;43667;53.036;6.740;2023-02-27T11:27:03;2.28;;;0.60;;
57832;SDS011;43667;53.036;6.740;2023-02-27T11:29:54;2.88;;;0.57;;
57832;SDS011;43667;53.036;6.740;2023-02-27T11:32:22;3.50;;;0.40;;
57832;SDS011;43667;53.036;6.740;2023-02-27T11:34:49;2.38;;;0.50;;
57832;SDS011;43667;53.036;6.740;2023-02-27T11:42:34;2.20;;;0.50;;
57832;SDS011;43667;53.036;6.740;2023-02-27T11:48:05;3.83;;;0.50;;
57832;SDS011;43667;53.036;6.740;2023-02-27T11:56:17;3.65;;;0.60;;
57832;SDS011;43667;53.036;6.740;2023-02-27T11:58:53;2.33;;;0.43;;
57832;SDS011;43667;53.036;6.740;2023-02-27T12:07:20;2.17;;;0.40;;
57832;SDS011;43667;53.036;6.740;2023-02-27T12:09:59;3.53;;;0.63;;
57832;SDS011;43667;53.036;6.740;2023-02-27T12:12:55;2.28;;;0.50;;
57832;SDS011;43667;53.036;6.740;2023-02-27T12:15:42;4.70;;;0.50;;
57832;SDS011;43667;53.036;6.740;2023-02-27T12:18:20;3.00;;;0.50;;
57832;SDS011;43667;53.036;6.740;2023-02-27T12:20:54;1.33;;;0.32;;
57832;SDS011;43667;53.036;6.740;2023-02-27T12:23:42;2.63;;;0.57;;
57832;SDS011;43667;53.036;6.740;2023-02-27T12:29:09;5.07;;;0.73;;
57832;SDS011;43667;53.036;6.740;2023-02-27T12:32:04;2.50;;;0.50;;
57832;SDS011;43667;53.036;6.740;2023-02-27T12:34:45;1.33;;;0.43;;
57832;SDS011;43667;53.036;6.740;2023-02-27T12:37:23;4.57;;;0.55;;
57832;SDS011;43667;53.036;6.740;2023-02-27T12:39:51;4.10;;;0.60;;
57832;SDS011;43667;53.036;6.740;2023-02-27T12:55:56;1.73;;;0.50;;
57832;SDS011;43667;53.036;6.740;2023-02-27T12:58:30;3.22;;;0.30;;
57832;SDS011;43667;53.036;6.740;2023-02-27T13:12:33;3.53;;;0.60;;
57832;SDS011;43667;53.036;6.740;2023-02-27T13:17:45;3.17;;;0.47;;
57832;SDS011;43667;53.036;6.740;2023-02-27T13:25:29;1.80;;;0.80;;
57832;SDS011;43667;53.036;6.740;2023-02-27T13:27:59;0.80;;;0.30;;
57832;SDS011;43667;53.036;6.740;2023-02-27T13:38:49;1.23;;;0.30;;
57832;SDS011;43667;53.036;6.740;2023-02-27T13:41:32;1.88;;;0.52;;
57832;SDS011;43667;53.036;6.740;2023-02-27T13:46:45;2.40;;;0.43;;
57832;SDS011;43667;53.036;6.740;2023-02-27T13:54:14;1.77;;;0.50;;
57832;SDS011;43667;53.036;6.740;2023-02-27T14:01:58;1.05;;;0.47;;
57832;SDS011;43667;53.036;6.740;2023-02-27T14:04:32;3.17;;;0.77;;
57832;SDS011;43667;53.036;6.740;2023-02-27T14:07:08;1.45;;;0.43;;
57832;SDS011;43667;53.036;6.740;2023-02-27T14:09:40;3.67;;;0.52;;
57832;SDS011;43667;53.036;6.740;2023-02-27T14:14:54;3.22;;;1.25;;
57832;SDS011;43667;53.036;6.740;2023-02-27T14:20:09;4.50;;;0.50;;
57832;SDS011;43667;53.036;6.740;2023-02-27T14:25:34;3.08;;;0.60;;
57832;SDS011;43667;53.036;6.740;2023-02-27T14:28:03;2.72;;;0.55;;
57832;SDS011;43667;53.036;6.740;2023-02-27T14:30:41;3.97;;;0.50;;
57832;SDS011;43667;53.036;6.740;2023-02-27T14:33:13;1.63;;;0.20;;
57832;SDS011;43667;53.036;6.740;2023-02-27T14:35:46;3.00;;;0.50;;
57832;SDS011;43667;53.036;6.740;2023-02-27T14:38:19;2.17;;;0.30;;
57832;SDS011;43667;53.036;6.740;2023-02-27T14:40:51;2.67;;;0.60;;
57832;SDS011;43667;53.036;6.740;2023-02-27T14:43:44;4.85;;;0.47;;
57832;SDS011;43667;53.036;6.740;2023-02-27T14:48:57;2.15;;;0.30;;
57832;SDS011;43667;53.036;6.740;2023-02-27T14:51:24;3.90;;;0.55;;
57832;SDS011;43667;53.036;6.740;2023-02-27T14:54:11;3.30;;;0.40;;
57832;SDS011;43667;53.036;6.740;2023-02-27T14:57:02;2.08;;;0.30;;
57832;SDS011;43667;53.036;6.740;2023-02-27T14:59:40;3.92;;;0.50;;
57832;SDS011;43667;53.036;6.740;2023-02-27T15:02:12;1.02;;;0.40;;
57832;SDS011;43667;53.036;6.740;2023-02-27T15:04:49;4.45;;;0.50;;
57832;SDS011;43667;53.036;6.740;2023-02-27T15:07:20;3.33;;;0.57;;
57832;SDS011;43667;53.036;6.740;2023-02-27T15:09:52;4.40;;;0.60;;
57832;SDS011;43667;53.036;6.740;2023-02-27T15:12:20;1.95;;;0.45;;
57832;SDS011;43667;53.036;6.740;2023-02-27T15:14:51;3.80;;;0.60;;
57832;SDS011;43667;53.036;6.740;2023-02-27T15:17:20;4.72;;;0.57;;
57832;SDS011;43667;53.036;6.740;2023-02-27T15:19:52;3.97;;;0.40;;
57832;SDS011;43667;53.036;6.740;2023-02-27T15:22:20;3.40;;;0.55;;
57832;SDS011;43667;53.036;6.740;2023-02-27T15:24:55;5.18;;;0.50;;
57832;SDS011;43667;53.036;6.740;2023-02-27T15:27:21;5.53;;;0.60;;
57832;SDS011;43667;53.036;6.740;2023-02-27T15:29:55;2.53;;;0.50;;
57832;SDS011;43667;53.036;6.740;2023-02-27T15:35:01;3.10;;;0.50;;
57832;SDS011;43667;53.036;6.740;2023-02-27T15:37:29;5.00;;;0.80;;
57832;SDS011;43667;53.036;6.740;2023-02-27T15:39:57;4.78;;;0.40;;
57832;SDS011;43667;53.036;6.740;2023-02-27T15:42:25;2.13;;;0.70;;
57832;SDS011;43667;53.036;6.740;2023-02-27T15:44:53;5.05;;;1.60;;
57832;SDS011;43667;53.036;6.740;2023-02-27T15:47:23;4.60;;;0.65;;
57832;SDS011;43667;53.036;6.740;2023-02-27T15:49:55;5.15;;;0.70;;
57832;SDS011;43667;53.036;6.740;2023-02-27T15:52:32;1.42;;;0.50;;
57832;SDS011;43667;53.036;6.740;2023-02-27T15:55:09;5.63;;;0.80;;
57832;SDS011;43667;53.036;6.740;2023-02-27T15:57:38;3.17;;;0.40;;
57832;SDS011;43667;53.036;6.740;2023-02-27T16:00:04;2.30;;;0.65;;
57832;SDS011;43667;53.036;6.740;2023-02-27T16:02:41;6.28;;;0.80;;
57832;SDS011;43667;53.036;6.740;2023-02-27T16:05:35;4.70;;;0.60;;
57832;SDS011;43667;53.036;6.740;2023-02-27T16:08:01;1.90;;;0.57;;
57832;SDS011;43667;53.036;6.740;2023-02-27T16:10:32;3.63;;;0.55;;
57832;SDS011;43667;53.036;6.740;2023-02-27T16:13:30;3.78;;;0.70;;
57832;SDS011;43667;53.036;6.740;2023-02-27T16:21:13;2.70;;;0.52;;
57832;SDS011;43667;53.036;6.740;2023-02-27T16:23:40;3.78;;;1.00;;
57832;SDS011;43667;53.036;6.740;2023-02-27T16:31:39;1.63;;;0.47;;
57832;SDS011;43667;53.036;6.740;2023-02-27T16:36:37;1.35;;;0.40;;
57832;SDS011;43667;53.036;6.740;2023-02-27T16:39:04;2.30;;;0.63;;
57832;SDS011;43667;53.036;6.740;2023-02-27T16:41:32;4.75;;;0.60;;
57832;SDS011;43667;53.036;6.740;2023-02-27T16:43:57;4.13;;;0.80;;
57832;SDS011;43667;53.036;6.740;2023-02-27T16:46:23;2.22;;;0.50;;
57832;SDS011;43667;53.036;6.740;2023-02-27T16:48:53;3.70;;;0.63;;
57832;SDS011;43667;53.036;6.740;2023-02-27T16:51:21;3.95;;;0.70;;
57832;SDS011;43667;53.036;6.740;2023-02-27T16:53:49;4.25;;;0.50;;
57832;SDS011;43667;53.036;6.740;2023-02-27T16:56:16;3.17;;;0.60;;
57832;SDS011;43667;53.036;6.740;2023-02-27T16:58:42;6.53;;;0.70;;
57832;SDS011;43667;53.036;6.740;2023-02-27T17:01:09;3.15;;;0.90;;
57832;SDS011;43667;53.036;6.740;2023-02-27T17:03:37;5.93;;;0.88;;
57832;SDS011;43667;53.036;6.740;2023-02-27T17:06:03;2.13;;;0.68;;
57832;SDS011;43667;53.036;6.740;2023-02-27T17:08:31;3.33;;;0.60;;
57832;SDS011;43667;53.036;6.740;2023-02-27T17:10:58;6.88;;;0.73;;
57832;SDS011;43667;53.036;6.740;2023-02-27T17:13:23;4.63;;;0.90;;
57832;SDS011;43667;53.036;6.740;2023-02-27T17:15:49;4.20;;;0.80;;
57832;SDS011;43667;53.036;6.740;2023-02-27T17:18:15;5.40;;;0.80;;
57832;SDS011;43667;53.036;6.740;2023-02-27T17:20:40;3.88;;;0.60;;
57832;SDS011;43667;53.036;6.740;2023-02-27T17:23:07;3.72;;;0.52;;
57832;SDS011;43667;53.036;6.740;2023-02-27T17:25:34;4.30;;;0.70;;
57832;SDS011;43667;53.036;6.740;2023-02-27T17:28:00;6.40;;;1.88;;
57832;SDS011;43667;53.036;6.740;2023-02-27T17:30:26;3.47;;;0.75;;
57832;SDS011;43667;53.036;6.740;2023-02-27T17:32:51;6.85;;;1.70;;
57832;SDS011;43667;53.036;6.740;2023-02-27T17:35:17;4.43;;;1.30;;
57832;SDS011;43667;53.036;6.740;2023-02-27T17:37:42;6.55;;;1.20;;
57832;SDS011;43667;53.036;6.740;2023-02-27T17:40:08;4.63;;;0.85;;
57832;SDS011;43667;53.036;6.740;2023-02-27T17:42:36;8.43;;;0.80;;
57832;SDS011;43667;53.036;6.740;2023-02-27T17:45:03;2.33;;;0.70;;
57832;SDS011;43667;53.036;6.740;2023-02-27T17:47:30;4.05;;;0.70;;
57832;SDS011;43667;53.036;6.740;2023-02-27T17:49:57;7.18;;;1.08;;
57832;SDS011;43667;53.036;6.740;2023-02-27T17:52:22;4.82;;;1.20;;
57832;SDS011;43667;53.036;6.740;2023-02-27T17:54:48;5.97;;;1.10;;
57832;SDS011;43667;53.036;6.740;2023-02-27T17:57:14;4.18;;;0.93;;
57832;SDS011;43667;53.036;6.740;2023-02-27T17:59:40;2.95;;;0.60;;
57832;SDS011;43667;53.036;6.740;2023-02-27T18:02:08;4.30;;;0.75;;
57832;SDS011;43667;53.036;6.740;2023-02-27T18:04:38;7.45;;;0.68;;
57832;SDS011;43667;53.036;6.740;2023-02-27T18:07:04;4.22;;;1.02;;
57832;SDS011;43667;53.036;6.740;2023-02-27T18:09:30;3.67;;;0.60;;
57832;SDS011;43667;53.036;6.740;2023-02-27T18:11:55;4.53;;;0.80;;
57832;SDS011;43667;53.036;6.740;2023-02-27T18:14:22;2.08;;;0.73;;
57832;SDS011;43667;53.036;6.740;2023-02-27T18:16:48;3.13;;;0.75;;
57832;SDS011;43667;53.036;6.740;2023-02-27T18:19:14;5.60;;;0.90;;